Time;durP1;ratioP1;P1;durP2;ratioP2;P2;SDS_P1;SDS_P2;PMS_P1;PMS_P2;Temp;Humidity;BMP_temperature;BMP_pressure;BME280_temperature;BME280_humidity;BME280_pressure;Samples;Min_cycle;Max_cycle;Signal;HPM_P1;HPM_P2
2023/08/13 00:01:26;;;;;;;34.67;19.65;;;;;;;20.46;68.32;95265.66;4994032;28;20199;-75
2023/08/13 00:03:51;;;;;;;33.10;18.63;;;;;;;20.45;69.05;95260.56;4994099;28;20173;-75
2023/08/13 00:06:16;;;;;;;28.48;16.73;;;;;;;20.43;69.49;95258.16;4994324;28;20177;-75
2023/08/13 00:08:42;;;;;;;26.33;16.70;;;;;;;20.45;69.52;95249.88;4993838;28;20181;-75
2023/08/13 00:11:09;;;;;;;20.50;12.88;;;;;;;20.45;70.31;95253.34;4994031;28;20184;-75
2023/08/13 00:13:35;;;;;;;21.95;11.27;;;;;;;20.46;70.31;95252.28;4994056;28;20200;-75
2023/08/13 00:16:00;;;;;;;15.30;11.52;;;;;;;20.43;71.15;95258.16;4993750;28;20177;-75
2023/08/13 00:18:28;;;;;;;16.48;10.52;;;;;;;20.42;70.86;95264.56;4993994;28;20177;-75
2023/08/13 00:20:53;;;;;;;19.48;11.38;;;;;;;20.39;71.01;95261.63;4988733;28;20181;-75
2023/08/13 00:23:19;;;;;;;16.58;10.13;;;;;;;20.39;70.79;95269.66;4993910;28;20188;-75
2023/08/13 00:25:44;;;;;;;14.82;9.63;;;;;;;20.27;71.06;95265.28;4993898;28;20181;-75
2023/08/13 00:28:09;;;;;;;17.85;9.82;;;;;;;20.26;71.55;95269.03;4991880;28;20628;-75
2023/08/13 00:30:35;;;;;;;10.68;6.03;;;;;;;20.17;71.29;95251.88;4992826;28;20177;-75
2023/08/13 00:33:00;;;;;;;10.02;6.10;;;;;;;20.22;71.76;95265.28;4993874;28;20193;-75
2023/08/13 00:35:25;;;;;;;10.02;7.53;;;;;;;20.04;72.22;95238.19;4993836;28;20200;-75
2023/08/13 00:37:51;;;;;;;9.50;6.15;;;;;;;20.16;71.71;95271.66;4993776;28;20259;-75
2023/08/13 00:40:16;;;;;;;9.50;5.85;;;;;;;20.12;72.14;95267.09;4991604;28;20247;-75
2023/08/13 00:42:42;;;;;;;10.98;5.97;;;;;;;20.08;72.47;95266.81;4993617;28;20173;-75
2023/08/13 00:45:08;;;;;;;9.65;5.30;;;;;;;20.04;71.53;95268.41;4993530;28;20176;-75
2023/08/13 00:47:34;;;;;;;9.15;4.65;;;;;;;19.98;72.07;95275.56;4993391;28;20263;-75
2023/08/13 00:50:00;;;;;;;4.97;4.22;;;;;;;19.83;71.90;95258.66;4993507;28;20189;-75
2023/08/13 00:52:25;;;;;;;6.22;4.50;;;;;;;19.89;71.91;95263.75;4993601;28;20247;-75
2023/08/13 00:54:51;;;;;;;10.48;3.88;;;;;;;19.87;71.96;95270.44;4975930;28;20178;-75
2023/08/13 00:57:17;;;;;;;7.47;3.50;;;;;;;19.70;72.12;95249.22;4985407;28;20260;-75
2023/08/13 00:59:43;;;;;;;7.20;3.87;;;;;;;19.72;72.30;95259.66;4992913;28;20799;-75
2023/08/13 01:02:09;;;;;;;6.57;3.45;;;;;;;19.70;72.95;95267.94;4993264;28;20173;-75
2023/08/13 01:04:34;;;;;;;7.63;3.90;;;;;;;19.47;73.12;95236.19;4993383;28;20173;-75
2023/08/13 01:07:31;;;;;;;5.30;4.05;;;;;;;19.62;73.02;95260.41;4993219;28;20173;-75
2023/08/13 01:10:09;;;;;;;6.38;3.60;;;;;;;19.55;72.83;95260.59;4992409;28;20674;-75
2023/08/13 01:12:37;;;;;;;4.55;3.67;;;;;;;19.51;73.13;95261.38;4990834;28;20262;-75
2023/08/13 01:15:17;;;;;;;7.28;3.63;;;;;;;19.43;73.02;95257.28;4987844;28;20177;-75
2023/08/13 01:17:44;;;;;;;6.95;4.00;;;;;;;19.30;73.82;95255.03;4971165;28;21138;-75
2023/08/13 01:20:12;;;;;;;6.40;3.42;;;;;;;19.28;73.49;95249.16;4988614;28;20264;-74
2023/08/13 01:22:39;;;;;;;4.22;3.08;;;;;;;19.22;73.71;95255.50;4993237;28;20173;-75
2023/08/13 01:25:09;;;;;;;6.53;3.20;;;;;;;19.20;73.55;95252.28;4993027;28;20192;-75
2023/08/13 01:27:42;;;;;;;4.78;3.30;;;;;;;19.08;73.94;95236.47;4975196;28;20644;-75
2023/08/13 01:30:16;;;;;;;4.20;3.38;;;;;;;19.17;73.64;95253.63;4992465;28;20215;-75
2023/08/13 01:32:56;;;;;;;5.53;3.30;;;;;;;19.14;73.87;95250.63;4992003;28;20668;-75
2023/08/13 01:35:23;;;;;;;4.88;3.92;;;;;;;19.13;73.93;95249.03;4992558;28;20707;-75
2023/08/13 01:37:50;;;;;;;11.07;4.20;;;;;;;19.06;74.08;95257.25;4992678;28;20172;-75
2023/08/13 01:40:15;;;;;;;7.60;4.03;;;;;;;18.99;74.60;95256.66;4992326;28;20181;-75
2023/08/13 01:42:41;;;;;;;7.45;3.72;;;;;;;18.98;74.96;95264.91;4992586;28;20247;-75
2023/08/13 01:45:06;;;;;;;8.82;4.38;;;;;;;18.95;75.24;95260.88;4992202;28;20260;-75
2023/08/13 01:47:32;;;;;;;9.00;6.72;;;;;;;18.79;75.27;95245.78;4992221;28;20624;-75
2023/08/13 01:49:57;;;;;;;14.73;11.15;;;;;;;18.92;75.13;95264.06;4992411;28;20211;-75
2023/08/13 01:52:23;;;;;;;8.55;6.70;;;;;;;18.81;75.04;95255.16;4992262;28;20328;-75
2023/08/13 01:54:48;;;;;;;7.30;5.05;;;;;;;18.83;75.26;95255.72;4992147;28;20990;-75
2023/08/13 01:57:13;;;;;;;8.63;6.68;;;;;;;18.81;75.47;95259.69;4992063;28;20239;-75
2023/08/13 01:59:39;;;;;;;7.25;6.45;;;;;;;18.72;75.82;95253.19;4992127;28;20232;-75
2023/08/13 02:02:04;;;;;;;7.35;5.93;;;;;;;18.68;76.16;95252.09;4991974;28;20689;-75
2023/08/13 02:04:29;;;;;;;8.70;6.43;;;;;;;18.65;76.53;95253.41;4991772;28;20191;-75
2023/08/13 02:06:55;;;;;;;6.40;5.20;;;;;;;18.48;76.63;95242.78;4992146;28;20178;-75
2023/08/13 02:09:20;;;;;;;5.47;4.55;;;;;;;18.51;77.29;95257.47;4992171;28;20200;-75
2023/08/13 02:11:45;;;;;;;9.30;5.55;;;;;;;18.28;76.92;95229.22;4991850;28;20189;-75
2023/08/13 02:14:11;;;;;;;8.15;5.50;;;;;;;18.33;77.47;95247.97;4991729;28;20287;-75
2023/08/13 02:16:36;;;;;;;7.68;6.00;;;;;;;18.27;77.96;95258.78;4991658;28;20320;-75
2023/08/13 02:19:02;;;;;;;12.23;6.72;;;;;;;18.23;78.60;95253.16;4986150;28;20174;-75
2023/08/13 02:21:27;;;;;;;13.68;10.40;;;;;;;18.19;78.52;95248.56;4972210;28;20206;-75
2023/08/13 02:23:52;;;;;;;20.65;12.93;;;;;;;18.15;78.63;95250.13;4972635;28;20212;-75
2023/08/13 02:26:18;;;;;;;15.70;11.15;;;;;;;18.13;78.80;95250.38;4972498;28;20173;-75
2023/08/13 02:28:43;;;;;;;15.95;11.70;;;;;;;18.10;78.75;95256.19;4977453;28;20243;-75
2023/08/13 02:31:09;;;;;;;17.60;11.75;;;;;;;18.06;78.81;95260.41;4991771;28;20220;-75
2023/08/13 02:33:35;;;;;;;21.17;12.27;;;;;;;18.02;78.92;95260.09;4991639;28;20555;-75
2023/08/13 02:36:00;;;;;;;22.42;12.35;;;;;;;17.99;79.01;95262.44;4991618;28;20265;-75
2023/08/13 02:38:25;;;;;;;15.63;10.68;;;;;;;17.96;79.13;95265.59;4982315;28;20572;-75
2023/08/13 02:40:51;;;;;;;23.40;11.70;;;;;;;17.84;78.62;95246.25;4972227;28;20253;-75
2023/08/13 02:43:16;;;;;;;18.48;10.80;;;;;;;17.89;79.07;95260.47;4971867;28;20174;-75
2023/08/13 02:45:41;;;;;;;20.10;10.77;;;;;;;17.86;79.81;95262.81;4971893;28;20660;-75
2023/08/13 02:48:07;;;;;;;15.40;10.35;;;;;;;17.82;79.56;95273.13;4972155;28;20204;-75
2023/08/13 02:50:32;;;;;;;20.25;11.27;;;;;;;17.79;79.69;95268.31;4971977;28;20716;-75
2023/08/13 02:52:58;;;;;;;17.50;10.20;;;;;;;17.78;79.53;95274.69;4982025;28;20200;-75
2023/08/13 02:55:23;;;;;;;13.98;8.02;;;;;;;17.79;79.60;95275.50;4982760;28;20690;-74
2023/08/13 02:57:48;;;;;;;15.77;9.40;;;;;;;17.77;79.43;95278.41;4986819;28;20227;-75
2023/08/13 03:00:14;;;;;;;16.38;9.32;;;;;;;17.70;79.45;95275.09;4991273;28;20169;-75
2023/08/13 03:02:40;;;;;;;14.13;8.35;;;;;;;17.62;79.53;95265.69;4991177;28;20628;-75
2023/08/13 03:05:05;;;;;;;13.25;7.10;;;;;;;17.73;79.44;95280.72;4991451;28;20554;-75
2023/08/13 03:07:31;;;;;;;10.48;5.60;;;;;;;17.56;79.62;95255.94;4991365;28;20184;-75
2023/08/13 03:09:57;;;;;;;7.13;4.65;;;;;;;17.52;79.80;95262.81;4991117;28;20180;-75
2023/08/13 03:12:22;;;;;;;7.68;4.70;;;;;;;17.39;80.11;95260.47;4973890;28;20205;-75
2023/08/13 03:14:48;;;;;;;7.22;4.93;;;;;;;17.43;80.52;95282.13;4971970;28;20185;-75
2023/08/13 03:17:13;;;;;;;8.40;4.45;;;;;;;17.46;80.66;95279.78;4973877;28;20224;-75
2023/08/13 03:19:39;;;;;;;7.30;4.55;;;;;;;17.49;80.64;95281.94;4991252;28;20181;-75
2023/08/13 03:22:04;;;;;;;7.65;5.43;;;;;;;17.50;80.34;95280.09;4991138;28;20641;-75
2023/08/13 03:24:29;;;;;;;5.85;3.95;;;;;;;17.46;80.30;95274.47;4991350;28;20173;-75
2023/08/13 03:26:55;;;;;;;12.55;5.15;;;;;;;17.41;80.26;95278.88;4991467;28;20177;-75
2023/08/13 03:29:20;;;;;;;8.80;4.40;;;;;;;17.40;80.48;95278.06;4991034;28;20197;-75
2023/08/13 03:31:46;;;;;;;8.02;4.53;;;;;;;17.39;80.75;95273.78;4983077;28;20288;-75
2023/08/13 03:34:11;;;;;;;7.60;4.47;;;;;;;17.38;80.96;95282.03;4990952;28;20442;-75
2023/08/13 03:36:37;;;;;;;7.45;4.43;;;;;;;17.38;80.64;95282.84;4991370;28;20264;-75
2023/08/13 03:39:02;;;;;;;6.43;4.70;;;;;;;17.38;80.74;95271.41;4991199;28;20271;-75
2023/08/13 03:41:27;;;;;;;8.25;4.93;;;;;;;17.35;81.04;95264.69;4991249;28;20562;-75
2023/08/13 03:43:54;;;;;;;8.10;4.78;;;;;;;17.41;80.96;95268.22;4989877;28;20174;-75
2023/08/13 03:46:19;;;;;;;12.48;4.70;;;;;;;17.40;81.01;95278.06;4991158;28;20192;-76
2023/08/13 03:48:44;;;;;;;7.90;4.65;;;;;;;17.41;81.28;95278.88;4991127;28;20181;-75
2023/08/13 03:51:10;;;;;;;10.50;5.55;;;;;;;17.43;81.22;95282.91;4991298;28;20272;-75
2023/08/13 03:53:35;;;;;;;10.52;4.70;;;;;;;17.35;80.95;95262.84;4991033;28;20193;-75
2023/08/13 03:56:07;;;;;;;9.75;5.03;;;;;;;17.41;81.13;95281.53;4992215;28;20242;-75
2023/08/13 03:58:34;;;;;;;13.88;4.78;;;;;;;17.36;81.15;95276.97;4994314;28;20182;-75
2023/08/13 04:01:06;;;;;;;16.38;5.20;;;;;;;17.35;81.53;95278.81;4994864;28;20188;-76
2023/08/13 04:03:32;;;;;;;7.32;4.95;;;;;;;17.43;81.52;95284.78;4994365;28;20177;-75
2023/08/13 04:05:57;;;;;;;7.55;4.78;;;;;;;17.42;81.82;95269.84;4994299;28;20211;-75
2023/08/13 04:08:23;;;;;;;10.38;5.13;;;;;;;17.63;81.11;95288.59;4994289;28;20641;-75
2023/08/13 04:10:49;;;;;;;7.60;5.80;;;;;;;17.73;80.65;95281.81;4994136;28;20180;-75
2023/08/13 04:13:15;;;;;;;8.15;5.55;;;;;;;17.87;80.30;95285.72;4994113;28;20279;-75
2023/08/13 04:15:40;;;;;;;5.28;4.07;;;;;;;17.97;79.91;95286.69;4994513;28;20267;-75
2023/08/13 04:18:06;;;;;;;7.90;5.07;;;;;;;18.06;79.23;95293.19;4993928;28;21592;-75
2023/08/13 04:20:32;;;;;;;9.65;4.68;;;;;;;18.18;77.99;95298.38;4989000;28;20684;-75
2023/08/13 04:22:57;;;;;;;8.98;5.30;;;;;;;18.26;77.49;95299.81;4993929;28;20166;-75
2023/08/13 04:25:25;;;;;;;9.40;5.32;;;;;;;18.35;77.96;95301.00;4993903;28;20185;-75
2023/08/13 04:27:51;;;;;;;9.38;4.90;;;;;;;18.51;77.82;95302.00;4993692;28;20184;-75
2023/08/13 04:30:16;;;;;;;9.57;5.22;;;;;;;18.69;77.70;95299.84;4981873;28;20181;-75
2023/08/13 04:32:55;;;;;;;9.25;5.10;;;;;;;18.90;77.20;95305.41;4993597;28;20648;-75
2023/08/13 04:35:21;;;;;;;6.18;4.63;;;;;;;19.09;76.90;95304.78;4993754;28;20629;-75
2023/08/13 04:37:46;;;;;;;5.47;4.00;;;;;;;19.31;74.61;95315.41;4981753;28;20181;-75
2023/08/13 04:40:12;;;;;;;8.50;4.82;;;;;;;19.40;73.50;95305.06;4973967;28;20543;-74
2023/08/13 04:42:37;;;;;;;14.88;4.10;;;;;;;19.58;72.60;95304.69;4973990;28;20170;-75
2023/08/13 04:45:03;;;;;;;8.70;4.60;;;;;;;19.81;72.15;95319.56;4987041;28;20181;-75
2023/08/13 04:47:28;;;;;;;9.38;4.00;;;;;;;20.06;71.34;95319.75;4993326;28;20624;-75
2023/08/13 04:49:54;;;;;;;10.65;4.72;;;;;;;20.30;71.77;95328.16;4986497;28;20270;-75
2023/08/13 04:52:19;;;;;;;16.48;5.13;;;;;;;20.51;70.99;95324.53;4973826;28;20197;-74
2023/08/13 04:54:48;;;;;;;21.02;12.23;;;;;;;20.75;70.13;95327.59;4972337;28;20189;-74
2023/08/13 04:57:13;;;;;;;9.93;4.53;;;;;;;20.92;67.61;95330.03;4973887;28;20257;-75
2023/08/13 04:59:39;;;;;;;7.00;4.68;;;;;;;21.17;66.57;95332.81;4981126;28;20268;-75
2023/08/13 05:02:04;;;;;;;11.52;5.65;;;;;;;21.27;65.43;95313.28;4993583;28;20239;-75
2023/08/13 05:04:30;;;;;;;8.80;4.72;;;;;;;21.60;64.61;95336.06;4993290;28;20623;-76
2023/08/13 05:06:55;;;;;;;17.80;11.23;;;;;;;21.81;63.39;95341.16;4992085;28;20192;-75
2023/08/13 05:09:20;;;;;;;9.77;6.03;;;;;;;22.07;63.23;95341.16;4991978;28;20169;-76
2023/08/13 05:11:46;;;;;;;14.82;6.65;;;;;;;22.39;61.83;95341.63;4980351;28;20220;-75
2023/08/13 05:14:11;;;;;;;5.25;4.07;;;;;;;22.75;60.67;95345.00;4973525;28;20284;-75
2023/08/13 05:16:37;;;;;;;7.93;6.50;;;;;;;23.11;60.27;95340.28;4965431;28;20613;-76
2023/08/13 05:19:03;;;;;;;7.97;5.60;;;;;;;23.47;59.31;95343.53;4992701;28;20181;-76
2023/08/13 05:21:28;;;;;;;25.05;16.95;;;;;;;23.96;57.48;95340.75;4992652;28;20176;-75
2023/08/13 05:23:54;;;;;;;16.65;7.97;;;;;;;24.46;55.37;95337.91;4993077;28;20179;-76
2023/08/13 05:26:19;;;;;;;7.53;3.63;;;;;;;24.86;53.82;95326.63;4992731;28;20533;-76
2023/08/13 05:28:45;;;;;;;12.43;8.07;;;;;;;25.28;53.71;95341.19;4992540;28;20703;-76
2023/08/13 05:31:10;;;;;;;5.40;3.35;;;;;;;25.62;51.46;95340.97;4992443;28;20554;-75
2023/08/13 05:33:36;;;;;;;7.00;4.30;;;;;;;26.05;50.56;95347.03;4992277;28;20237;-76
2023/08/13 05:36:02;;;;;;;7.78;4.80;;;;;;;26.39;50.24;95341.31;4992868;28;20934;-76
2023/08/13 05:38:28;;;;;;;3.65;2.78;;;;;;;26.68;49.07;95329.16;4992791;28;20184;-75
2023/08/13 05:40:53;;;;;;;13.57;9.23;;;;;;;27.17;48.66;95343.03;4992400;28;20182;-74
2023/08/13 05:43:18;;;;;;;12.85;5.93;;;;;;;27.40;48.05;95329.28;4992360;28;20261;-74
2023/08/13 05:45:44;;;;;;;4.13;2.72;;;;;;;27.77;47.25;95346.28;4992241;28;20196;-72
2023/08/13 05:48:09;;;;;;;13.65;7.90;;;;;;;28.09;46.45;95346.06;4992089;28;20173;-72
2023/08/13 05:50:35;;;;;;;8.60;6.50;;;;;;;28.35;45.39;95354.34;4992064;28;20169;-72
2023/08/13 05:53:00;;;;;;;9.57;7.45;;;;;;;28.50;45.19;95350.44;4992282;28;20553;-72
2023/08/13 05:55:25;;;;;;;5.10;3.00;;;;;;;28.81;45.08;95345.00;4992336;28;20256;-72
2023/08/13 05:57:51;;;;;;;9.85;6.93;;;;;;;29.05;44.17;95356.25;4992178;28;20661;-72
2023/08/13 06:00:17;;;;;;;5.93;4.25;;;;;;;29.01;43.08;95343.63;4991891;28;20169;-72
2023/08/13 06:02:42;;;;;;;5.22;3.00;;;;;;;29.04;43.46;95348.44;4991790;28;20180;-73
2023/08/13 06:05:08;;;;;;;8.80;3.35;;;;;;;28.84;43.91;95353.31;4991953;28;20181;-72
2023/08/13 06:07:34;;;;;;;7.53;3.03;;;;;;;28.65;44.03;95346.50;4991861;28;20181;-72
2023/08/13 06:10:01;;;;;;;3.20;2.60;;;;;;;28.56;43.24;95351.88;4991839;28;20192;-72
2023/08/13 06:12:26;;;;;;;6.43;3.00;;;;;;;28.14;44.40;95347.81;4991774;28;20189;-72
2023/08/13 06:14:52;;;;;;;4.60;2.88;;;;;;;27.91;45.99;95352.47;4990843;28;20177;-72
2023/08/13 06:17:17;;;;;;;4.40;2.90;;;;;;;27.56;45.63;95353.28;4991382;28;20759;-72
2023/08/13 06:19:42;;;;;;;3.67;2.60;;;;;;;27.36;46.20;95355.31;4980005;28;20217;-72
2023/08/13 06:22:08;;;;;;;4.97;3.55;;;;;;;27.12;46.80;95343.97;4972085;28;20269;-74
2023/08/13 06:24:34;;;;;;;3.03;2.47;;;;;;;27.08;47.93;95356.47;4972224;28;20256;-74
2023/08/13 06:26:59;;;;;;;4.18;2.58;;;;;;;27.08;48.64;95348.34;4971967;28;20650;-73
2023/08/13 06:29:25;;;;;;;5.97;3.20;;;;;;;27.14;46.92;95357.19;4980389;28;20227;-75
2023/08/13 06:31:50;;;;;;;7.38;4.40;;;;;;;26.97;46.73;95339.69;4976850;28;20174;-74
2023/08/13 06:34:16;;;;;;;5.45;3.15;;;;;;;27.13;48.25;95345.56;4971785;28;20202;-74
2023/08/13 06:36:41;;;;;;;7.80;5.38;;;;;;;27.42;47.40;95359.50;4979747;28;20184;-75
2023/08/13 06:39:07;;;;;;;4.88;2.95;;;;;;;27.38;45.98;95353.13;4991442;28;20244;-75
2023/08/13 06:41:32;;;;;;;4.55;3.20;;;;;;;27.32;46.84;95348.13;4979281;28;20182;-75
2023/08/13 06:43:58;;;;;;;5.07;2.85;;;;;;;27.38;47.35;95347.72;4986389;28;20625;-75
2023/08/13 06:46:24;;;;;;;3.17;2.88;;;;;;;27.57;47.91;95344.06;4991716;28;20184;-74
2023/08/13 06:48:49;;;;;;;6.28;3.47;;;;;;;27.74;45.72;95353.13;4974255;28;20180;-74
2023/08/13 06:51:14;;;;;;;7.25;3.67;;;;;;;27.91;46.46;95343.53;4991396;28;20173;-73
2023/08/13 06:53:40;;;;;;;5.85;3.25;;;;;;;27.94;47.46;95332.06;4976743;28;20205;-74
2023/08/13 06:56:06;;;;;;;4.72;3.20;;;;;;;27.99;44.11;95346.31;4971900;28;20239;-74
2023/08/13 06:58:31;;;;;;;6.63;3.10;;;;;;;27.98;44.71;95344.69;4982039;28;20177;-73
2023/08/13 07:00:57;;;;;;;5.00;3.40;;;;;;;28.09;45.79;95343.34;4991203;28;20177;-73
2023/08/13 07:03:22;;;;;;;5.25;2.60;;;;;;;27.62;44.68;95341.25;4976856;28;20181;-75
2023/08/13 07:05:48;;;;;;;10.40;2.75;;;;;;;27.86;45.88;95339.03;4972675;28;20570;-75
2023/08/13 07:08:13;;;;;;;5.13;3.08;;;;;;;28.02;44.37;95339.47;4991129;28;20246;-74
2023/08/13 07:10:39;;;;;;;6.90;3.38;;;;;;;27.96;44.12;95338.78;4982262;28;20188;-73
2023/08/13 07:13:05;;;;;;;4.63;3.10;;;;;;;27.54;43.40;95318.44;4991031;28;20240;-73
2023/08/13 07:15:30;;;;;;;4.80;3.42;;;;;;;27.82;45.68;95338.06;4991120;28;20686;-73
2023/08/13 07:17:55;;;;;;;6.70;3.22;;;;;;;28.11;44.69;95332.19;4989160;28;20268;-73
2023/08/13 07:20:21;;;;;;;4.10;2.80;;;;;;;28.35;42.34;95329.19;4991244;28;20170;-74
2023/08/13 07:22:49;;;;;;;4.30;2.88;;;;;;;28.44;43.02;95313.75;4959864;28;20186;-73
2023/08/13 07:25:15;;;;;;;9.98;3.40;;;;;;;28.70;42.42;95332.84;4971572;28;20186;-73
2023/08/13 07:27:42;;;;;;;4.75;3.13;;;;;;;29.02;42.23;95329.75;4971876;28;20787;-75
2023/08/13 07:30:11;;;;;;;3.42;2.38;;;;;;;29.00;41.33;95334.69;4971267;28;21067;-75
2023/08/13 07:32:38;;;;;;;6.47;3.10;;;;;;;29.00;40.77;95328.47;4979626;28;20300;-75
2023/08/13 07:35:06;;;;;;;7.07;3.03;;;;;;;29.09;42.09;95332.00;4994856;28;20258;-77
2023/08/13 07:37:32;;;;;;;4.90;2.90;;;;;;;29.29;41.09;95328.69;4995051;28;20176;-74
2023/08/13 07:39:58;;;;;;;7.45;3.95;;;;;;;29.28;40.69;95327.09;4995029;28;20177;-74
2023/08/13 07:42:23;;;;;;;3.65;2.85;;;;;;;29.20;39.92;95330.59;4995033;28;20173;-75
2023/08/13 07:44:49;;;;;;;4.90;3.13;;;;;;;29.00;40.03;95328.47;4982313;28;20189;-73
2023/08/13 07:47:14;;;;;;;3.22;2.67;;;;;;;29.33;41.62;95318.78;4977953;28;20264;-73
2023/08/13 07:49:40;;;;;;;4.57;2.72;;;;;;;29.53;41.11;95301.13;4994393;28;20204;-74
2023/08/13 07:52:05;;;;;;;6.70;3.42;;;;;;;29.80;39.18;95327.94;4994373;28;20268;-73
2023/08/13 07:54:31;;;;;;;3.60;2.80;;;;;;;29.39;38.79;95317.56;4994378;28;20181;-73
2023/08/13 07:56:56;;;;;;;5.25;3.13;;;;;;;28.98;38.95;95298.16;4994380;28;20179;-73
2023/08/13 07:59:22;;;;;;;5.03;3.47;;;;;;;29.25;39.26;95295.16;4994051;28;20660;-73
2023/08/13 08:01:47;;;;;;;10.05;4.40;;;;;;;29.70;39.71;95316.59;4982323;28;20634;-72
2023/08/13 08:04:13;;;;;;;3.25;2.80;;;;;;;29.63;38.04;95311.66;4974435;28;20252;-72
2023/08/13 08:06:39;;;;;;;4.80;2.80;;;;;;;29.71;38.32;95312.75;4974532;28;20209;-72
2023/08/13 08:09:07;;;;;;;5.68;2.58;;;;;;;29.75;37.71;95311.78;4979583;28;20213;-75
2023/08/13 08:11:32;;;;;;;3.20;2.50;;;;;;;29.62;38.93;95308.13;4986516;28;20170;-73
2023/08/13 08:13:58;;;;;;;5.20;2.80;;;;;;;30.01;38.02;95303.66;4986189;28;20208;-73
2023/08/13 08:16:23;;;;;;;3.03;2.45;;;;;;;29.63;38.42;95293.44;4980209;28;20250;-77
2023/08/13 08:18:49;;;;;;;3.95;2.58;;;;;;;29.73;37.89;95305.09;4994467;28;20621;-75
2023/08/13 08:21:14;;;;;;;3.22;2.53;;;;;;;29.62;37.75;95297.28;4994479;28;20193;-75
2023/08/13 08:23:40;;;;;;;3.55;2.53;;;;;;;28.96;38.28;95281.41;4995047;28;20181;-80
2023/08/13 08:26:05;;;;;;;3.25;2.45;;;;;;;29.10;37.94;95287.50;4994765;28;20217;-77
2023/08/13 08:28:31;;;;;;;2.90;2.60;;;;;;;28.97;38.37;95288.44;4994418;28;20177;-76
2023/08/13 08:30:56;;;;;;;2.15;1.90;;;;;;;28.63;39.59;95283.72;4994966;28;20181;-77
2023/08/13 08:33:23;;;;;;;3.00;2.35;;;;;;;28.49;40.90;95267.56;4994393;28;20204;-79
2023/08/13 08:35:49;;;;;;;3.63;2.40;;;;;;;28.60;39.90;95277.00;4994244;28;20660;-75
2023/08/13 08:38:14;;;;;;;3.28;2.40;;;;;;;28.62;39.26;95255.81;4993681;28;20189;-74
2023/08/13 08:40:45;;;;;;;4.53;2.60;;;;;;;28.84;38.81;95261.13;4993955;28;20667;-76
2023/08/13 08:43:11;;;;;;;4.20;2.50;;;;;;;29.06;40.56;95260.19;4994427;28;20636;-79
2023/08/13 08:45:38;;;;;;;3.22;2.40;;;;;;;29.26;39.12;95270.44;4990299;28;20257;-75
2023/08/13 08:48:06;;;;;;;5.60;2.50;;;;;;;28.89;37.22;95239.28;4991048;28;20172;-76
2023/08/13 08:50:36;;;;;;;3.58;2.17;;;;;;;28.74;38.92;95253.28;4993319;28;20672;-75
2023/08/13 08:53:02;;;;;;;6.88;2.35;;;;;;;28.74;40.63;95257.88;4994038;28;20212;-75
2023/08/13 08:55:27;;;;;;;2.85;2.55;;;;;;;28.88;39.24;95262.13;4994578;28;20180;-74
2023/08/13 08:57:54;;;;;;;4.03;2.42;;;;;;;28.78;39.73;95257.00;4993005;28;20177;-79
2023/08/13 09:00:20;;;;;;;2.03;1.80;;;;;;;28.45;39.97;95255.75;4993441;28;20213;-78
2023/08/13 09:02:45;;;;;;;2.95;2.25;;;;;;;28.98;38.67;95257.47;4994149;28;20255;-80
2023/08/13 09:05:11;;;;;;;3.80;2.67;;;;;;;28.89;38.03;95249.34;4994628;28;20173;-79
2023/08/13 09:07:42;;;;;;;2.78;2.40;;;;;;;28.43;38.03;95261.47;4994381;28;20188;-77
2023/08/13 09:10:10;;;;;;;3.22;2.17;;;;;;;27.85;39.21;95258.94;4985132;28;20257;-75
2023/08/13 09:12:40;;;;;;;3.80;2.53;;;;;;;27.94;40.28;95251.66;4993742;28;20656;-75
2023/08/13 09:15:10;;;;;;;4.32;1.92;;;;;;;28.05;38.55;95258.41;4997715;28;20687;-76
2023/08/13 09:17:37;;;;;;;4.13;2.08;;;;;;;27.62;38.80;95239.22;4993280;28;20229;-76
2023/08/13 09:20:19;;;;;;;5.85;2.42;;;;;;;27.59;39.93;95250.66;4983337;28;20173;-76
2023/08/13 09:22:48;;;;;;;2.85;2.40;;;;;;;27.82;41.03;95243.34;4982049;28;20695;-76
2023/08/13 09:25:16;;;;;;;3.30;2.33;;;;;;;27.98;38.88;95247.22;4976344;28;20638;-75
2023/08/13 09:27:42;;;;;;;2.95;2.13;;;;;;;27.99;39.51;95242.63;4973582;28;20181;-74
2023/08/13 09:30:28;;;;;;;3.08;2.00;;;;;;;28.13;39.54;95235.19;4969980;28;20688;-75
2023/08/13 09:32:56;;;;;;;2.50;2.25;;;;;;;27.83;39.69;95228.69;4970392;28;20198;-74
2023/08/13 09:35:22;;;;;;;3.63;2.63;;;;;;;27.88;40.22;95235.88;4954431;29;20194;-75
2023/08/13 09:37:47;;;;;;;4.88;2.22;;;;;;;28.03;39.43;95236.25;4964267;28;20184;-75
2023/08/13 09:40:13;;;;;;;3.95;2.10;;;;;;;28.23;39.26;95236.84;4992919;28;20173;-73
2023/08/13 09:42:38;;;;;;;2.60;2.15;;;;;;;28.37;38.94;95240.25;4990250;28;20182;-75
2023/08/13 09:45:09;;;;;;;5.57;2.25;;;;;;;28.10;39.10;95235.84;4973300;28;20186;-76
2023/08/13 09:47:36;;;;;;;2.92;2.25;;;;;;;27.74;40.07;95244.09;4984417;28;20251;-76
2023/08/13 09:50:03;;;;;;;2.50;2.30;;;;;;;27.58;41.42;95248.28;4993810;28;20236;-76
2023/08/13 09:52:29;;;;;;;5.57;2.35;;;;;;;27.64;41.55;95247.84;4975865;28;20196;-77
2023/08/13 09:55:11;;;;;;;4.28;2.30;;;;;;;27.46;42.39;95246.09;4992750;28;20208;-77
2023/08/13 09:57:39;;;;;;;5.65;2.58;;;;;;;27.43;41.82;95244.78;4993135;28;20157;-78
2023/08/13 10:00:09;;;;;;;3.00;2.50;;;;;;;27.51;42.18;95240.53;4988159;28;20185;-77
2023/08/13 10:02:35;;;;;;;2.17;2.00;;;;;;;27.65;41.07;95221.59;4975732;28;20185;-76
2023/08/13 10:05:03;;;;;;;2.55;2.30;;;;;;;27.45;41.25;95243.69;4993960;28;20588;-77
2023/08/13 10:07:29;;;;;;;3.25;2.60;;;;;;;27.55;41.93;95222.63;4973604;28;20189;-76
2023/08/13 10:09:54;;;;;;;4.00;2.67;;;;;;;27.74;40.79;95230.56;4973672;28;20181;-77
2023/08/13 10:12:21;;;;;;;2.50;2.17;;;;;;;28.04;40.69;95226.22;4976193;28;20184;-77
2023/08/13 10:14:48;;;;;;;9.35;2.47;;;;;;;28.09;39.84;95235.03;4981502;28;20209;-78
2023/08/13 10:17:17;;;;;;;5.10;2.20;;;;;;;27.74;40.78;95228.66;4984317;28;20708;-78
2023/08/13 10:19:48;;;;;;;2.70;2.40;;;;;;;27.67;40.78;95241.03;4991736;28;20174;-77
2023/08/13 10:22:14;;;;;;;4.45;2.40;;;;;;;27.76;40.67;95239.94;4992921;28;20192;-78
2023/08/13 10:24:42;;;;;;;3.40;2.47;;;;;;;27.73;41.23;95231.66;4992502;28;20224;-78
2023/08/13 10:27:11;;;;;;;3.25;2.33;;;;;;;27.96;40.75;95227.00;4992514;28;20231;-77
2023/08/13 10:29:41;;;;;;;2.40;2.20;;;;;;;28.21;41.29;95229.03;4974900;28;20272;-77
2023/08/13 10:32:15;;;;;;;2.65;2.20;;;;;;;28.11;39.98;95232.78;4992420;28;20183;-78
2023/08/13 10:34:41;;;;;;;3.50;2.25;;;;;;;28.02;40.80;95234.66;4992925;28;20276;-78
2023/08/13 10:37:15;;;;;;;3.40;2.28;;;;;;;27.64;41.14;95220.78;4993076;28;20189;-77
2023/08/13 10:39:41;;;;;;;2.60;2.40;;;;;;;27.45;41.04;95211.22;4993224;28;20204;-78
2023/08/13 10:42:34;;;;;;;2.33;2.13;;;;;;;27.21;42.12;95222.34;4992908;28;20176;-78
2023/08/13 10:45:07;;;;;;;5.22;2.50;;;;;;;27.21;42.46;95223.16;4986207;28;20279;-77
2023/08/13 10:47:59;;;;;;;3.58;2.58;;;;;;;26.99;43.64;95220.41;4990533;28;20185;-78
2023/08/13 10:50:36;;;;;;;2.85;2.17;;;;;;;26.61;43.59;95192.88;4985309;28;20206;-77
2023/08/13 10:53:12;;;;;;;3.08;2.58;;;;;;;26.71;43.87;95218.88;4982414;28;20200;-77
2023/08/13 10:55:47;;;;;;;3.08;2.58;;;;;;;26.83;43.59;95216.44;4985220;28;20191;-77
2023/08/13 10:58:30;;;;;;;2.53;2.28;;;;;;;27.04;43.72;95225.72;4989001;28;20239;-77
2023/08/13 11:01:11;;;;;;;4.97;2.45;;;;;;;27.15;42.46;95219.00;4991837;28;20259;-78
2023/08/13 11:03:55;;;;;;;4.20;2.63;;;;;;;27.22;42.79;95218.56;4991110;28;20185;-78
2023/08/13 11:06:24;;;;;;;3.03;2.30;;;;;;;27.23;43.99;95212.84;4995569;28;20177;-78
2023/08/13 11:08:49;;;;;;;3.97;2.40;;;;;;;27.28;41.88;95215.41;4992653;28;20672;-77
2023/08/13 11:11:19;;;;;;;3.25;2.38;;;;;;;27.24;43.08;95214.44;4993003;28;20184;-77
2023/08/13 11:13:45;;;;;;;2.67;2.38;;;;;;;27.30;42.08;95199.69;4995267;28;20239;-78
2023/08/13 11:16:11;;;;;;;4.95;2.40;;;;;;;27.33;41.75;95199.06;4995753;28;20682;-77
2023/08/13 11:18:37;;;;;;;3.42;2.92;;;;;;;27.55;41.82;95200.19;4975785;28;20232;-77
2023/08/13 11:21:04;;;;;;;4.57;3.22;;;;;;;27.62;42.22;95193.22;4979745;28;20206;-77
2023/08/13 11:23:29;;;;;;;3.42;2.60;;;;;;;27.96;42.70;95206.13;4979019;28;20173;-76
2023/08/13 11:25:55;;;;;;;3.00;2.65;;;;;;;28.05;42.15;95193.44;4981763;28;20196;-77
2023/08/13 11:28:22;;;;;;;3.45;2.95;;;;;;;27.93;41.15;95187.03;4975917;28;20200;-76
2023/08/13 11:30:51;;;;;;;3.05;2.75;;;;;;;27.99;41.15;95183.06;4976061;28;20173;-73